createdAt,value
2022-11-27T00:01:34.915Z,79.93
2022-11-27T00:04:02.274Z,78.23
2022-11-27T00:06:31.271Z,78.31
2022-11-27T00:09:01.038Z,79.28
2022-11-27T00:11:30.525Z,79.86
2022-11-27T00:13:58.558Z,79.36
2022-11-27T00:16:27.120Z,79.06
2022-11-27T00:18:54.583Z,78.24
2022-11-27T00:21:27.224Z,78.75
2022-11-27T00:23:57.015Z,80.10
2022-11-27T00:26:25.656Z,78.92
2022-11-27T00:28:54.497Z,79.33
2022-11-27T00:31:29.528Z,80.16
2022-11-27T00:33:59.823Z,79.72
2022-11-27T00:36:31.097Z,80.37
2022-11-27T00:38:58.744Z,79.67
2022-11-27T00:41:29.454Z,80.17
2022-11-27T00:43:57.905Z,78.99
2022-11-27T00:46:29.646Z,79.55
2022-11-27T00:48:58.961Z,79.81
2022-11-27T00:51:28.193Z,79.50
2022-11-27T00:53:55.483Z,80.36
2022-11-27T00:56:29.845Z,79.42
2022-11-27T00:58:57.852Z,80.08
2022-11-27T01:01:34.983Z,80.09
2022-11-27T01:04:04.405Z,79.14
2022-11-27T01:06:32.547Z,78.56
2022-11-27T01:09:01.219Z,79.54
2022-11-27T01:11:33.570Z,79.29
2022-11-27T01:14:09.507Z,79.98
2022-11-27T01:16:42.653Z,79.43
2022-11-27T01:19:12.428Z,79.04
2022-11-27T01:21:39.790Z,78.82
2022-11-27T01:24:07.786Z,78.84
2022-11-27T01:26:34.806Z,79.81
2022-11-27T01:29:01.935Z,78.76
2022-11-27T01:31:32.505Z,77.81
2022-11-27T01:34:07.625Z,78.68
2022-11-27T01:36:35.951Z,78.70
2022-11-27T01:39:04.215Z,78.63
2022-11-27T01:41:35.333Z,79.15
2022-11-27T01:44:24.316Z,79.45
2022-11-27T01:47:01.010Z,78.80
2022-11-27T01:49:36.280Z,78.58
2022-11-27T01:52:08.523Z,78.27
2022-11-27T01:55:06.610Z,78.15
2022-11-27T01:57:49.971Z,78.37
2022-11-27T02:00:18.997Z,78.23
2022-11-27T02:02:46.689Z,78.59
2022-11-27T02:05:19.352Z,77.80
2022-11-27T02:07:48.064Z,78.98
2022-11-27T02:10:16.113Z,78.63
2022-11-27T02:13:05.092Z,79.22
2022-11-27T02:15:37.660Z,78.95
2022-11-27T02:18:38.645Z,78.54
2022-11-27T02:21:39.628Z,78.34
2022-11-27T02:24:49.695Z,78.73
2022-11-27T02:28:02.806Z,78.71
2022-11-27T02:30:38.440Z,79.92
2022-11-27T02:33:11.862Z,79.59
2022-11-27T02:35:54.422Z,79.14
2022-11-27T02:38:28.734Z,79.78
2022-11-27T02:41:08.066Z,79.26
2022-11-27T02:43:46.700Z,80.49
2022-11-27T02:46:15.218Z,80.11
2022-11-27T02:48:49.390Z,79.24
2022-11-27T02:51:26.522Z,78.80
2022-11-27T02:53:59.289Z,78.58
2022-11-27T02:56:29.923Z,79.09
2022-11-27T02:59:03.809Z,79.55
2022-11-27T03:01:39.940Z,79.47
2022-11-27T03:04:14.922Z,79.76
2022-11-27T03:06:48.446Z,79.61
2022-11-27T03:09:23.142Z,79.87
2022-11-27T03:11:51.142Z,79.40
2022-11-27T03:14:24.513Z,79.42
2022-11-27T03:17:12.893Z,79.21
2022-11-27T03:19:47.061Z,79.27
2022-11-27T03:22:15.206Z,80.03
2022-11-27T03:24:42.654Z,79.43
2022-11-27T03:27:14.293Z,78.83
2022-11-27T03:29:52.931Z,79.89
2022-11-27T03:32:20.612Z,79.38
2022-11-27T03:34:48.898Z,79.23
2022-11-27T03:37:16.364Z,79.21
2022-11-27T03:39:43.634Z,79.69
2022-11-27T03:42:51.718Z,79.33
2022-11-27T03:45:49.520Z,79.64
2022-11-27T03:48:38.311Z,79.70
2022-11-27T03:51:20.282Z,78.54
2022-11-27T03:53:56.377Z,78.88
2022-11-27T03:56:43.715Z,79.82
2022-11-27T03:59:21.521Z,80.09
2022-11-27T04:01:48.861Z,79.61
2022-11-27T04:04:16.177Z,79.03
2022-11-27T04:06:43.235Z,79.16
2022-11-27T04:09:10.483Z,79.05
2022-11-27T04:11:37.686Z,79.34
2022-11-27T04:14:04.935Z,79.11
2022-11-27T04:16:32.501Z,78.89
2022-11-27T04:19:00.212Z,78.92
2022-11-27T04:21:27.241Z,79.62
2022-11-27T04:23:54.282Z,79.33
2022-11-27T04:26:21.496Z,79.56
2022-11-27T04:28:48.563Z,78.71
2022-11-27T04:31:16.442Z,79.19
2022-11-27T04:33:45.066Z,79.58
2022-11-27T04:36:12.153Z,79.06
2022-11-27T04:38:39.193Z,79.15
2022-11-27T04:41:06.254Z,79.52
2022-11-27T04:43:33.323Z,79.35
2022-11-27T04:46:00.374Z,78.87
2022-11-27T04:48:27.833Z,78.43
2022-11-27T04:50:56.067Z,79.44
2022-11-27T04:53:23.210Z,79.36
2022-11-27T04:55:52.625Z,78.19
2022-11-27T04:58:20.144Z,78.22
2022-11-27T05:00:47.370Z,78.92
2022-11-27T05:03:14.440Z,79.39
2022-11-27T05:05:41.562Z,78.76
2022-11-27T05:08:08.694Z,79.17
2022-11-27T05:10:36.324Z,79.26
2022-11-27T05:13:03.495Z,79.42
2022-11-27T05:15:30.512Z,78.75
2022-11-27T05:17:57.521Z,80.06
2022-11-27T05:20:28.013Z,79.17
2022-11-27T05:22:55.113Z,79.23
2022-11-27T05:25:22.239Z,79.57
2022-11-27T05:27:49.484Z,79.39
2022-11-27T05:30:16.536Z,79.27
2022-11-27T05:32:43.552Z,78.89
2022-11-27T05:35:10.506Z,79.16
2022-11-27T05:37:37.517Z,79.31
2022-11-27T05:40:05.934Z,79.18
2022-11-27T05:42:33.286Z,79.01
2022-11-27T05:45:01.288Z,79.28
2022-11-27T05:47:28.432Z,79.46
2022-11-27T05:49:55.598Z,79.04
2022-11-27T05:52:22.696Z,78.96
2022-11-27T05:54:50.023Z,79.43
2022-11-27T05:57:17.096Z,79.04
2022-11-27T05:59:44.142Z,79.18
2022-11-27T06:02:15.054Z,79.01
2022-11-27T06:04:45.524Z,79.18
2022-11-27T06:07:12.738Z,78.92
2022-11-27T06:09:40.096Z,79.17
2022-11-27T06:12:07.947Z,78.85
2022-11-27T06:14:35.447Z,79.38
2022-11-27T06:17:03.509Z,79.30
2022-11-27T06:19:31.282Z,79.03
2022-11-27T06:21:58.558Z,78.84
2022-11-27T06:24:25.872Z,79.33
2022-11-27T06:26:53.051Z,79.75
2022-11-27T06:29:20.120Z,78.96
2022-11-27T06:31:48.540Z,79.51
2022-11-27T06:34:18.585Z,79.61
2022-11-27T06:36:46.470Z,79.40
2022-11-27T06:39:13.545Z,79.29
2022-11-27T06:41:40.715Z,79.71
2022-11-27T06:44:07.808Z,79.42
2022-11-27T06:46:34.836Z,79.38
2022-11-27T06:49:02.278Z,79.14
2022-11-27T06:51:31.925Z,79.32
2022-11-27T06:54:02.267Z,79.51
2022-11-27T06:56:31.760Z,79.63
2022-11-27T06:59:01.657Z,80.17
2022-11-27T07:01:31.899Z,80.03
2022-11-27T07:03:59.371Z,79.79
2022-11-27T07:06:27.542Z,79.80
2022-11-27T07:08:55.771Z,80.21
2022-11-27T07:11:29.897Z,80.46
2022-11-27T07:13:58.753Z,80.60
2022-11-27T07:16:29.068Z,80.31
2022-11-27T07:19:00.363Z,80.79
2022-11-27T07:21:28.443Z,80.53
2022-11-27T07:23:58.950Z,80.41
2022-11-27T07:26:28.993Z,81.29
2022-11-27T07:28:56.765Z,81.23
2022-11-27T07:31:28.420Z,81.15
2022-11-27T07:33:56.533Z,81.77
2022-11-27T07:36:28.079Z,81.97
2022-11-27T07:38:55.950Z,82.21
2022-11-27T07:41:23.036Z,82.25
2022-11-27T07:43:50.501Z,82.24
2022-11-27T07:46:24.259Z,82.24
2022-11-27T07:48:51.921Z,82.39
2022-11-27T07:51:22.581Z,83.14
2022-11-27T07:53:52.096Z,82.18
2022-11-27T07:56:20.238Z,82.69
2022-11-27T07:58:48.315Z,83.00
2022-11-27T08:01:18.935Z,82.52
2022-11-27T08:03:47.512Z,83.34
2022-11-27T08:06:22.048Z,82.89
2022-11-27T08:08:49.724Z,83.50
2022-11-27T08:11:27.119Z,84.16
2022-11-27T08:14:04.359Z,84.69
2022-11-27T08:16:34.081Z,84.22
2022-11-27T08:19:02.124Z,84.95
2022-11-27T08:21:30.637Z,85.20
2022-11-27T08:23:58.453Z,85.22
2022-11-27T08:26:27.717Z,85.30
2022-11-27T08:28:56.733Z,85.81
2022-11-27T08:31:27.906Z,85.83
2022-11-27T08:33:56.111Z,85.83
2022-11-27T08:36:26.883Z,86.18
2022-11-27T08:38:55.549Z,87.06
2022-11-27T08:41:23.136Z,87.31
2022-11-27T08:43:53.072Z,87.41
2022-11-27T08:46:20.583Z,87.51
2022-11-27T08:48:48.356Z,86.58
2022-11-27T08:51:16.541Z,88.15
2022-11-27T08:53:45.742Z,88.31
2022-11-27T08:56:20.482Z,87.87
2022-11-27T08:58:48.727Z,87.98
2022-11-27T09:01:42.011Z,89.04
2022-11-27T09:04:09.197Z,88.15
2022-11-27T09:06:36.511Z,88.39
2022-11-27T09:09:06.051Z,88.37
2022-11-27T09:11:35.369Z,89.09
2022-11-27T09:14:04.514Z,88.78
2022-11-27T09:16:32.228Z,88.98
2022-11-27T09:18:59.579Z,88.84
2022-11-27T09:21:30.902Z,88.46
2022-11-27T09:24:00.775Z,88.97
2022-11-27T09:26:29.439Z,88.82
2022-11-27T09:28:58.914Z,89.00
2022-11-27T09:31:28.595Z,88.25
2022-11-27T09:33:55.941Z,88.82
2022-11-27T09:36:25.846Z,88.85
2022-11-27T09:38:53.438Z,88.31
2022-11-27T09:41:48.440Z,88.26
2022-11-27T09:44:43.008Z,88.24
2022-11-27T09:47:41.419Z,87.78
2022-11-27T09:50:27.932Z,88.42
2022-11-27T09:53:01.137Z,87.33
2022-11-27T09:55:43.244Z,87.89
2022-11-27T09:58:42.183Z,87.64
2022-11-27T10:01:16.498Z,87.62
2022-11-27T10:03:46.061Z,88.73
2022-11-27T10:06:28.771Z,88.76
2022-11-27T10:09:19.182Z,88.72
2022-11-27T10:12:44.824Z,87.93
2022-11-27T10:15:27.236Z,88.16
2022-11-27T10:18:12.414Z,88.34
2022-11-27T10:21:29.157Z,87.38
2022-11-27T10:24:20.581Z,86.52
2022-11-27T10:26:50.840Z,87.44
2022-11-27T10:29:39.537Z,87.26
2022-11-27T10:32:54.743Z,87.32
2022-11-27T10:35:25.373Z,86.66
2022-11-27T10:38:10.875Z,86.91
2022-11-27T10:40:46.640Z,87.30
2022-11-27T10:43:23.397Z,86.37
2022-11-27T10:45:57.986Z,86.70
2022-11-27T10:48:27.717Z,85.53
2022-11-27T10:50:54.877Z,86.36
2022-11-27T10:53:36.055Z,86.39
2022-11-27T10:56:12.239Z,85.98
2022-11-27T10:59:04.775Z,86.60
2022-11-27T11:01:50.780Z,86.25
2022-11-27T11:04:41.739Z,86.54
2022-11-27T11:07:29.648Z,86.89
2022-11-27T11:09:57.095Z,87.03
2022-11-27T11:12:27.996Z,86.62
2022-11-27T11:15:00.785Z,87.29
2022-11-27T11:17:34.663Z,86.96
2022-11-27T11:20:26.598Z,86.96
2022-11-27T11:22:54.362Z,86.18
2022-11-27T11:25:22.390Z,85.65
2022-11-27T11:27:51.248Z,85.95
2022-11-27T11:30:29.294Z,85.68
2022-11-27T11:33:02.348Z,85.21
2022-11-27T11:35:34.931Z,85.18
2022-11-27T11:38:06.146Z,85.16
2022-11-27T11:40:35.982Z,84.16
2022-11-27T11:43:10.149Z,83.58
2022-11-27T11:45:46.968Z,83.60
2022-11-27T11:48:26.787Z,83.09
2022-11-27T11:51:22.784Z,82.68
2022-11-27T11:54:46.329Z,82.78
2022-11-27T11:57:31.553Z,82.60
2022-11-27T12:00:26.625Z,82.56
2022-11-27T12:03:16.162Z,81.56
2022-11-27T12:06:07.206Z,81.44
2022-11-27T12:08:43.644Z,80.66
2022-11-27T12:11:24.083Z,80.39
2022-11-27T12:14:11.489Z,79.64
2022-11-27T12:17:24.613Z,80.38
2022-11-27T12:20:10.591Z,80.13
2022-11-27T12:22:50.534Z,80.04
2022-11-27T12:25:29.703Z,79.41
2022-11-27T12:28:06.316Z,79.54
2022-11-27T12:30:47.746Z,79.80
2022-11-27T12:34:02.238Z,79.49
2022-11-27T12:37:16.467Z,79.16
2022-11-27T12:40:01.769Z,79.43
2022-11-27T12:43:04.977Z,79.43
2022-11-27T12:45:56.216Z,78.47
2022-11-27T12:48:47.102Z,78.90
2022-11-27T12:51:48.505Z,78.25
2022-11-27T12:54:27.807Z,78.70
2022-11-27T12:57:00.660Z,78.16
2022-11-27T12:59:35.830Z,77.83
2022-11-27T13:02:36.856Z,76.61
2022-11-27T13:05:10.726Z,76.72
2022-11-27T13:07:49.470Z,76.77
2022-11-27T13:10:43.758Z,76.38
2022-11-27T13:13:30.511Z,75.79
2022-11-27T13:16:15.587Z,76.12
2022-11-27T13:18:55.170Z,74.73
2022-11-27T13:21:29.876Z,74.65
2022-11-27T13:24:01.608Z,74.38
2022-11-27T13:26:40.715Z,73.39
2022-11-27T13:29:17.945Z,73.35
2022-11-27T13:31:48.783Z,73.68
2022-11-27T13:34:23.828Z,73.87
2022-11-27T13:37:07.461Z,74.13
2022-11-27T13:39:39.329Z,74.75
2022-11-27T13:42:12.205Z,74.06
2022-11-27T13:44:44.177Z,75.10
2022-11-27T13:47:17.362Z,74.98
2022-11-27T13:49:46.443Z,74.89
2022-11-27T13:52:20.017Z,74.16
2022-11-27T13:55:01.018Z,74.45
2022-11-27T13:57:38.513Z,74.62
2022-11-27T14:00:16.439Z,75.03
2022-11-27T14:02:49.391Z,75.49
2022-11-27T14:05:21.352Z,75.17
2022-11-27T14:07:52.980Z,75.42
2022-11-27T14:10:50.497Z,74.78
2022-11-27T14:13:19.005Z,75.19
2022-11-27T14:16:01.954Z,74.72
2022-11-27T14:18:31.227Z,74.76
2022-11-27T14:21:03.638Z,75.26
2022-11-27T14:23:38.121Z,74.84
2022-11-27T14:26:24.992Z,75.31
2022-11-27T14:28:55.318Z,74.64
2022-11-27T14:31:34.790Z,75.12
2022-11-27T14:34:23.119Z,75.58
2022-11-27T14:36:53.402Z,75.82
2022-11-27T14:39:40.833Z,75.77
2022-11-27T14:42:24.006Z,75.66
2022-11-27T14:45:11.509Z,75.27
2022-11-27T14:47:50.192Z,75.67
2022-11-27T14:50:19.744Z,76.38
2022-11-27T14:52:56.614Z,75.48
2022-11-27T14:55:34.327Z,76.32
2022-11-27T14:58:02.473Z,76.13
2022-11-27T15:00:31.606Z,75.92
2022-11-27T15:03:10.420Z,76.33
2022-11-27T15:05:39.323Z,76.47
2022-11-27T15:08:10.557Z,76.72
2022-11-27T15:10:42.078Z,76.49
2022-11-27T15:13:28.995Z,77.04
2022-11-27T15:16:14.864Z,76.86
2022-11-27T15:18:52.658Z,77.47
2022-11-27T15:21:27.523Z,77.57
2022-11-27T15:23:56.980Z,77.68
2022-11-27T15:26:34.868Z,77.64
2022-11-27T15:29:03.430Z,77.82
2022-11-27T15:31:37.414Z,77.60
2022-11-27T15:34:21.996Z,77.89
2022-11-27T15:36:59.791Z,78.19
2022-11-27T15:39:51.697Z,77.83
2022-11-27T15:42:20.689Z,78.15
2022-11-27T15:44:50.458Z,78.21
2022-11-27T15:47:35.348Z,77.93
2022-11-27T15:50:04.727Z,78.19
2022-11-27T15:52:32.106Z,78.80
2022-11-27T15:54:59.383Z,78.98
2022-11-27T15:57:26.524Z,78.77
2022-11-27T15:59:53.609Z,78.17
2022-11-27T16:02:20.738Z,79.25
2022-11-27T16:04:47.932Z,78.89
2022-11-27T16:07:15.192Z,78.92
2022-11-27T16:09:42.338Z,79.57
2022-11-27T16:12:09.507Z,79.15
2022-11-27T16:14:36.660Z,79.09
2022-11-27T16:17:03.982Z,79.10
2022-11-27T16:19:31.773Z,79.12
2022-11-27T16:22:01.132Z,79.32
2022-11-27T16:24:28.238Z,79.18
2022-11-27T16:26:55.366Z,79.35
2022-11-27T16:29:22.555Z,79.34
2022-11-27T16:31:49.947Z,79.74
2022-11-27T16:34:18.736Z,79.55
2022-11-27T16:36:46.940Z,79.33
2022-11-27T16:39:17.990Z,79.76
2022-11-27T16:41:45.245Z,79.34
2022-11-27T16:44:15.116Z,80.14
2022-11-27T16:46:44.608Z,79.61
2022-11-27T16:49:12.514Z,79.73
2022-11-27T16:51:41.683Z,79.56
2022-11-27T16:54:13.555Z,80.50
2022-11-27T16:56:43.072Z,80.33
2022-11-27T16:59:13.564Z,80.11
2022-11-27T17:01:42.756Z,80.17
2022-11-27T17:04:18.437Z,80.43
2022-11-27T17:06:48.014Z,80.31
2022-11-27T17:09:15.949Z,79.90
2022-11-27T17:11:48.466Z,79.91
2022-11-27T17:14:16.405Z,80.46
2022-11-27T17:16:43.696Z,80.47
2022-11-27T17:19:13.824Z,80.96
2022-11-27T17:21:42.644Z,80.56
2022-11-27T17:24:16.042Z,80.72
2022-11-27T17:26:48.279Z,80.19
2022-11-27T17:29:21.013Z,80.15
2022-11-27T17:31:51.202Z,81.00
2022-11-27T17:34:19.251Z,80.63
2022-11-27T17:36:50.996Z,80.30
2022-11-27T17:39:18.550Z,80.34
2022-11-27T17:41:45.769Z,80.47
2022-11-27T17:44:13.412Z,80.18
2022-11-27T17:46:40.694Z,80.48
2022-11-27T17:49:08.445Z,80.83
2022-11-27T17:51:37.720Z,80.27
2022-11-27T17:54:06.085Z,80.57
2022-11-27T17:56:35.132Z,79.80
2022-11-27T17:59:03.059Z,79.81
2022-11-27T18:01:34.668Z,80.73
2022-11-27T18:04:04.208Z,80.69
2022-11-27T18:06:32.389Z,80.80
2022-11-27T18:09:00.765Z,80.57
2022-11-27T18:11:33.936Z,80.60
2022-11-27T18:14:02.099Z,80.23
2022-11-27T18:16:35.172Z,80.75
2022-11-27T18:19:06.425Z,79.84
2022-11-27T18:21:34.239Z,80.17
2022-11-27T18:29:41.541Z,80.12
2022-11-27T18:32:09.537Z,79.94
2022-11-27T18:34:36.875Z,80.57
2022-11-27T18:37:04.885Z,80.09
2022-11-27T18:39:32.904Z,80.59
2022-11-27T18:42:00.278Z,80.28
2022-11-27T18:44:29.508Z,80.09
2022-11-27T18:46:59.390Z,80.65
2022-11-27T18:49:29.660Z,80.15
2022-11-27T18:51:56.976Z,80.03
2022-11-27T18:54:24.398Z,80.17
2022-11-27T18:56:51.873Z,80.17
2022-11-27T18:59:19.747Z,80.31
2022-11-27T19:01:47.101Z,80.37
2022-11-27T19:04:15.272Z,80.28
2022-11-27T19:06:43.819Z,80.24
2022-11-27T19:09:13.351Z,80.90
2022-11-27T19:11:41.816Z,80.73
2022-11-27T19:14:10.253Z,80.60
2022-11-27T19:16:46.262Z,80.35
2022-11-27T19:22:09.414Z,80.87
2022-11-27T19:24:38.035Z,80.40
2022-11-27T19:27:05.299Z,81.07
2022-11-27T19:29:32.740Z,80.67
2022-11-27T19:32:01.235Z,80.92
2022-11-27T19:34:28.878Z,80.79
2022-11-27T19:36:58.479Z,81.52
2022-11-27T19:39:27.279Z,81.46
2022-11-27T19:41:54.859Z,81.11
2022-11-27T19:44:23.501Z,81.39
2022-11-27T19:46:50.568Z,80.67
2022-11-27T19:49:18.806Z,80.88
2022-11-27T19:51:47.230Z,81.34
2022-11-27T19:54:15.731Z,80.85
2022-11-27T19:56:43.605Z,80.82
2022-11-27T19:59:12.730Z,80.40
2022-11-27T20:01:41.894Z,81.04
2022-11-27T20:04:12.754Z,80.34
2022-11-27T20:06:41.166Z,81.64
2022-11-27T20:09:08.442Z,80.65
2022-11-27T20:11:36.426Z,80.59
2022-11-27T20:14:06.442Z,80.70
2022-11-27T20:16:35.487Z,81.07
2022-11-27T20:19:06.082Z,80.71
2022-11-27T20:21:36.918Z,80.75
2022-11-27T20:24:04.336Z,80.72
2022-11-27T20:26:32.834Z,81.64
2022-11-27T20:29:00.688Z,80.69
2022-11-27T20:31:34.075Z,80.75
2022-11-27T20:34:03.692Z,81.94
2022-11-27T20:36:34.337Z,80.91
2022-11-27T20:39:02.412Z,80.75
2022-11-27T20:41:31.338Z,80.93
2022-11-27T20:44:01.770Z,81.05
2022-11-27T20:46:33.547Z,80.82
2022-11-27T20:49:01.844Z,81.11
2022-11-27T20:51:36.319Z,81.06
2022-11-27T20:54:09.356Z,80.87
2022-11-27T20:56:36.572Z,81.04
2022-11-27T20:59:05.122Z,81.01
2022-11-27T21:01:35.451Z,81.41
2022-11-27T21:04:10.445Z,81.45
2022-11-27T21:06:43.900Z,81.04
2022-11-27T21:09:14.078Z,80.18
2022-11-27T21:11:43.463Z,80.70
2022-11-27T21:14:13.839Z,80.15
2022-11-27T21:16:48.130Z,80.90
2022-11-27T21:19:25.983Z,80.61
2022-11-27T21:21:55.719Z,81.00
2022-11-27T21:24:26.450Z,80.13
2022-11-27T21:26:54.894Z,80.70
2022-11-27T21:29:25.495Z,80.38
2022-11-27T21:31:55.351Z,81.82
2022-11-27T21:34:23.305Z,81.29
2022-11-27T21:36:50.588Z,80.87
2022-11-27T21:39:20.907Z,81.38
2022-11-27T21:41:50.930Z,81.55
2022-11-27T21:44:21.850Z,82.14
2022-11-27T21:46:50.768Z,81.50
2022-11-27T21:49:20.891Z,81.77
2022-11-27T21:51:52.479Z,82.58
2022-11-27T21:54:20.649Z,81.85
2022-11-27T21:56:51.864Z,82.05
2022-11-27T21:59:20.794Z,81.80
2022-11-27T22:01:48.353Z,81.78
2022-11-27T22:04:15.676Z,82.29
2022-11-27T22:06:45.340Z,81.16
2022-11-27T22:09:15.761Z,82.13
2022-11-27T22:11:45.896Z,82.17
2022-11-27T22:14:15.666Z,82.64
2022-11-27T22:16:46.463Z,82.44
2022-11-27T22:19:17.044Z,82.18
2022-11-27T22:21:45.521Z,82.60
2022-11-27T22:24:18.759Z,82.25
2022-11-27T22:26:51.282Z,82.50
2022-11-27T22:29:19.861Z,81.58
2022-11-27T22:31:47.133Z,82.48
2022-11-27T22:34:16.394Z,81.85
2022-11-27T22:36:44.519Z,82.69
2022-11-27T22:39:11.837Z,82.68
2022-11-27T22:41:41.596Z,83.60
2022-11-27T22:44:19.496Z,83.53
2022-11-27T22:46:47.765Z,82.52
2022-11-27T22:49:17.841Z,82.70
2022-11-27T22:51:45.535Z,82.48
2022-11-27T22:54:17.279Z,83.96
2022-11-27T22:56:46.531Z,82.64
2022-11-27T23:02:06.603Z,83.17
2022-11-27T23:04:38.124Z,82.61
2022-11-27T23:07:06.228Z,84.24
2022-11-27T23:09:35.044Z,83.48
2022-11-27T23:12:02.336Z,83.68
2022-11-27T23:14:29.690Z,83.48
2022-11-27T23:16:56.801Z,83.55
2022-11-27T23:19:24.363Z,83.79
2022-11-27T23:21:51.952Z,84.60
2022-11-27T23:24:19.106Z,83.14
2022-11-27T23:26:46.555Z,83.53
2022-11-27T23:29:14.535Z,84.16
2022-11-27T23:31:42.036Z,84.06
2022-11-27T23:34:13.563Z,83.45
2022-11-27T23:36:40.918Z,84.57
2022-11-27T23:39:10.643Z,83.62
2022-11-27T23:41:37.850Z,83.80
2022-11-27T23:44:05.084Z,83.48
2022-11-27T23:46:32.183Z,83.54
2022-11-27T23:49:00.762Z,83.12
2022-11-27T23:51:31.227Z,82.41
2022-11-27T23:53:58.863Z,83.52
2022-11-27T23:56:29.669Z,82.64
2022-11-27T23:58:57.976Z,84.29
